Time;durP1;ratioP1;P1;durP2;ratioP2;P2;SDS_P1;SDS_P2;PMS_P1;PMS_P2;Temp;Humidity;BMP_temperature;BMP_pressure;BME280_temperature;BME280_humidity;BME280_pressure;Samples;Min_cycle;Max_cycle;Signal;HPM_P1;HPM_P2
2023/08/31 00:01:26;;;;;;;2.80;2.50;;;16.70;66.70;;;;;;20699;6847;123136;-69
2023/08/31 00:03:51;;;;;;;3.00;2.72;;;16.70;66.20;;;;;;20479;6847;278589;-70
2023/08/31 00:06:17;;;;;;;4.30;2.83;;;16.90;66.00;;;;;;20493;6847;299545;-70
2023/08/31 00:08:43;;;;;;;3.80;3.35;;;17.20;65.50;;;;;;20492;6847;333513;-69
2023/08/31 00:11:09;;;;;;;3.40;2.97;;;17.70;63.20;;;;;;20489;6847;312483;-70
2023/08/31 00:13:34;;;;;;;3.13;2.83;;;17.70;63.20;;;;;;20472;6847;278468;-69
2023/08/31 00:16:00;;;;;;;2.72;2.53;;;17.90;62.50;;;;;;20708;6847;117484;-69
2023/08/31 00:18:25;;;;;;;2.77;2.27;;;17.70;62.90;;;;;;20712;6847;119568;-69
2023/08/31 00:20:51;;;;;;;3.30;2.37;;;17.40;64.00;;;;;;20708;6847;119936;-69
2023/08/31 00:23:17;;;;;;;3.30;2.70;;;17.10;64.90;;;;;;20487;6847;309055;-69
2023/08/31 00:25:43;;;;;;;3.20;2.90;;;17.20;64.40;;;;;;20476;6845;340318;-69
2023/08/31 00:28:09;;;;;;;3.40;3.10;;;17.50;63.50;;;;;;20497;6846;312764;-70
2023/08/31 00:30:33;;;;;;;4.05;2.90;;;17.70;62.90;;;;;;20496;6846;311562;-69
2023/08/31 00:33:00;;;;;;;2.60;2.40;;;17.90;62.30;;;;;;20704;6846;117316;-69
2023/08/31 00:35:24;;;;;;;3.00;2.80;;;17.60;63.30;;;;;;20493;6846;342424;-69
2023/08/31 00:37:51;;;;;;;2.37;2.27;;;17.70;63.20;;;;;;20687;6846;120347;-69
2023/08/31 00:40:16;;;;;;;2.95;2.10;;;17.50;63.40;;;;;;20701;6846;118901;-69
2023/08/31 00:42:41;;;;;;;2.83;2.62;;;17.20;64.00;;;;;;20487;6846;308108;-69
2023/08/31 00:45:07;;;;;;;2.83;2.70;;;17.20;63.10;;;;;;20499;6846;308619;-68
2023/08/31 00:47:33;;;;;;;2.20;2.10;;;17.50;62.30;;;;;;20686;6847;119445;-69
2023/08/31 00:49:58;;;;;;;2.47;2.37;;;17.30;62.50;;;;;;20495;6847;337281;-69
2023/08/31 00:52:24;;;;;;;3.97;2.10;;;17.40;62.40;;;;;;20704;6847;117440;-69
2023/08/31 00:54:49;;;;;;;2.77;2.57;;;17.20;62.80;;;;;;20507;6847;278540;-69
2023/08/31 00:57:15;;;;;;;2.95;2.70;;;17.30;62.70;;;;;;20496;6847;312554;-69
2023/08/31 00:59:41;;;;;;;2.80;2.40;;;17.50;62.10;;;;;;20684;6847;119462;-69
2023/08/31 01:02:21;;;;;;;3.00;2.70;;;17.40;62.40;;;;;;20489;6847;308592;-69
2023/08/31 01:04:59;;;;;;;2.43;2.20;;;17.20;62.80;;;;;;20680;6847;118836;-69
2023/08/31 01:07:52;;;;;;;2.43;2.23;;;17.20;62.80;;;;;;20694;6847;120806;-69
2023/08/31 01:10:26;;;;;;;3.00;2.30;;;16.90;63.70;;;;;;19658;7193;122720;-69
2023/08/31 01:12:55;;;;;;;3.30;3.00;;;16.60;64.60;;;;;;20108;6847;308045;-69
2023/08/31 01:15:20;;;;;;;3.67;2.40;;;16.80;64.50;;;;;;20673;6847;117817;-69
2023/08/31 01:17:48;;;;;;;5.00;2.90;;;16.80;64.60;;;;;;20681;6847;117488;-69
2023/08/31 01:20:15;;;;;;;2.60;2.50;;;16.50;65.90;;;;;;20701;6847;123194;-69
2023/08/31 01:22:40;;;;;;;3.03;2.20;;;16.40;65.80;;;;;;20695;6847;121394;-70
2023/08/31 01:25:08;;;;;;;2.90;2.70;;;16.30;66.70;;;;;;20700;6847;122133;-68
2023/08/31 01:27:32;;;;;;;2.97;2.85;;;16.20;66.60;;;;;;20466;6847;326522;-69
2023/08/31 01:29:57;;;;;;;2.70;2.60;;;16.50;66.50;;;;;;20703;6847;117534;-69
2023/08/31 01:32:23;;;;;;;3.15;2.95;;;16.60;66.20;;;;;;20484;6847;308144;-69
2023/08/31 01:34:50;;;;;;;2.60;2.50;;;16.80;65.40;;;;;;20700;6847;119837;-68
2023/08/31 01:37:15;;;;;;;3.10;2.90;;;16.70;65.30;;;;;;20694;6845;120281;-68
2023/08/31 01:39:41;;;;;;;2.73;2.63;;;16.60;65.80;;;;;;20685;6846;118288;-69
2023/08/31 01:42:05;;;;;;;2.75;2.60;;;16.40;66.30;;;;;;20700;6846;123871;-69
2023/08/31 01:44:32;;;;;;;3.30;2.17;;;16.30;66.80;;;;;;20716;6846;123268;-69
2023/08/31 01:46:56;;;;;;;3.08;2.83;;;16.10;67.10;;;;;;20502;6846;308122;-71
2023/08/31 01:49:22;;;;;;;2.47;2.37;;;16.30;66.20;;;;;;20699;6846;119888;-69
2023/08/31 01:51:47;;;;;;;2.30;2.20;;;16.30;66.00;;;;;;20685;6846;120332;-69
2023/08/31 01:54:13;;;;;;;2.67;2.57;;;16.20;66.50;;;;;;20700;6846;117190;-69
2023/08/31 01:56:39;;;;;;;3.20;2.78;;;16.20;66.30;;;;;;20495;6846;309018;-69
2023/08/31 01:59:05;;;;;;;3.00;2.70;;;16.20;66.30;;;;;;20496;6847;279075;-68
2023/08/31 02:01:34;;;;;;;2.77;2.67;;;16.60;64.80;;;;;;20685;6847;118016;-69
2023/08/31 02:04:00;;;;;;;2.95;2.75;;;16.60;64.80;;;;;;20500;6847;318406;-69
2023/08/31 02:06:26;;;;;;;3.07;2.27;;;16.70;63.90;;;;;;20716;6847;123176;-69
2023/08/31 02:08:51;;;;;;;2.63;2.43;;;16.60;64.20;;;;;;20717;6847;121370;-70
2023/08/31 02:11:17;;;;;;;2.40;2.20;;;16.30;65.10;;;;;;20711;6847;122194;-68
2023/08/31 02:13:43;;;;;;;2.30;2.10;;;16.00;66.80;;;;;;20696;6847;129408;-68
2023/08/31 02:16:08;;;;;;;3.35;2.60;;;16.00;66.80;;;;;;20503;6847;308127;-69
2023/08/31 02:18:34;;;;;;;2.85;2.65;;;16.20;66.20;;;;;;20501;6847;337683;-68
2023/08/31 02:21:00;;;;;;;2.50;2.40;;;16.60;64.70;;;;;;20711;6847;117341;-68
2023/08/31 02:23:25;;;;;;;2.85;2.58;;;16.60;64.60;;;;;;20708;6847;117311;-69
2023/08/31 02:25:51;;;;;;;2.85;2.65;;;16.50;65.00;;;;;;20477;6847;307776;-69
2023/08/31 02:28:19;;;;;;;3.00;2.80;;;16.50;65.00;;;;;;20492;6847;313329;-68
2023/08/31 02:30:43;;;;;;;3.60;2.90;;;17.10;63.20;;;;;;20484;6847;278569;-69
2023/08/31 02:33:29;;;;;;;3.20;2.90;;;17.10;63.20;;;;;;20486;6847;304014;-69
2023/08/31 02:36:04;;;;;;;3.10;2.90;;;17.30;62.40;;;;;;20753;6726;304800;-69
2023/08/31 02:38:43;;;;;;;2.83;2.53;;;17.50;62.00;;;;;;20890;6744;120087;-69
2023/08/31 02:41:16;;;;;;;3.40;2.92;;;17.30;62.60;;;;;;20539;6767;278573;-69
2023/08/31 02:43:51;;;;;;;2.83;2.70;;;17.20;62.30;;;;;;20840;6757;119772;-68
2023/08/31 02:46:27;;;;;;;3.63;3.30;;;17.00;62.80;;;;;;20637;6747;308677;-69
2023/08/31 02:49:02;;;;;;;3.37;3.17;;;17.10;62.70;;;;;;20682;6757;300363;-68
2023/08/31 02:51:38;;;;;;;2.80;2.60;;;17.30;62.50;;;;;;20775;6729;122240;-68
2023/08/31 02:54:13;;;;;;;2.80;2.60;;;17.10;62.90;;;;;;20860;6752;116893;-69
2023/08/31 02:56:50;;;;;;;3.30;3.05;;;16.80;63.90;;;;;;20601;6766;335701;-69
2023/08/31 02:59:25;;;;;;;3.27;3.03;;;17.10;62.50;;;;;;20680;6745;305935;-68
2023/08/31 03:02:10;;;;;;;3.97;3.03;;;17.10;62.50;;;;;;20847;6730;120081;-69
2023/08/31 03:04:43;;;;;;;3.03;2.47;;;17.00;62.90;;;;;;20911;6740;122354;-68
2023/08/31 03:07:16;;;;;;;2.83;2.40;;;16.60;63.70;;;;;;21003;6695;116692;-69
2023/08/31 03:09:51;;;;;;;4.20;3.10;;;16.30;64.60;;;;;;20741;6711;307063;-69
2023/08/31 03:12:30;;;;;;;3.00;2.73;;;16.80;63.10;;;;;;20575;6725;308123;-68
2023/08/31 03:15:03;;;;;;;3.67;2.47;;;16.80;63.00;;;;;;20977;6705;116767;-72
2023/08/31 03:17:40;;;;;;;2.70;2.50;;;16.40;64.30;;;;;;20963;6705;119421;-68
2023/08/31 03:20:15;;;;;;;3.10;2.87;;;16.30;64.20;;;;;;20772;6705;276121;-68
2023/08/31 03:22:51;;;;;;;3.60;2.97;;;16.50;63.90;;;;;;20648;6705;307791;-69
2023/08/31 03:25:26;;;;;;;3.20;3.00;;;16.80;63.10;;;;;;20791;6698;280887;-68
2023/08/31 03:28:02;;;;;;;3.03;2.73;;;17.10;62.00;;;;;;20802;6693;305615;-68
2023/08/31 03:30:38;;;;;;;3.03;2.78;;;17.40;61.00;;;;;;20815;6685;304559;-69
2023/08/31 03:33:16;;;;;;;3.30;2.33;;;17.40;61.00;;;;;;20993;6699;117315;-68
2023/08/31 03:35:51;;;;;;;3.77;2.70;;;17.20;61.50;;;;;;20734;6713;276288;-70
2023/08/31 03:38:27;;;;;;;3.92;2.60;;;17.20;61.20;;;;;;20789;6698;338159;-70
2023/08/31 03:41:02;;;;;;;2.90;2.70;;;17.30;60.40;;;;;;20697;6716;278971;-70
2023/08/31 03:43:38;;;;;;;3.40;2.87;;;17.50;60.20;;;;;;20801;6686;333549;-70
2023/08/31 03:46:13;;;;;;;3.50;2.17;;;17.60;59.90;;;;;;20999;6701;122596;-70
2023/08/31 03:48:50;;;;;;;2.87;2.67;;;17.20;60.60;;;;;;20803;6695;303772;-70
2023/08/31 03:51:25;;;;;;;3.03;2.57;;;17.20;60.60;;;;;;20907;6707;116834;-70
2023/08/31 03:54:01;;;;;;;2.60;2.40;;;17.00;61.20;;;;;;20999;6702;119528;-70
2023/08/31 03:56:36;;;;;;;2.90;2.70;;;16.70;62.30;;;;;;21007;6697;116703;-70
2023/08/31 03:59:12;;;;;;;3.07;2.87;;;16.50;63.30;;;;;;20798;6697;280130;-70
2023/08/31 04:01:47;;;;;;;3.20;2.90;;;16.60;62.80;;;;;;20677;6697;306950;-70
2023/08/31 04:04:23;;;;;;;2.30;2.10;;;16.90;61.90;;;;;;21005;6696;119685;-70
2023/08/31 04:06:58;;;;;;;2.67;2.47;;;16.90;62.20;;;;;;21024;6693;116776;-70
2023/08/31 04:09:34;;;;;;;2.95;2.65;;;16.60;62.90;;;;;;20788;6693;308285;-70
2023/08/31 04:12:10;;;;;;;2.20;2.00;;;16.70;62.30;;;;;;20908;6693;117166;-70
2023/08/31 04:14:46;;;;;;;3.60;2.10;;;16.40;63.30;;;;;;21019;6693;117276;-70
2023/08/31 04:17:22;;;;;;;4.93;2.33;;;16.40;63.30;;;;;;21011;6693;117964;-70
2023/08/31 04:19:58;;;;;;;5.70;2.83;;;16.20;64.00;;;;;;20795;6693;286721;-70
2023/08/31 04:22:33;;;;;;;3.30;2.50;;;16.40;63.50;;;;;;20882;6693;123450;-70
2023/08/31 04:25:09;;;;;;;3.20;2.90;;;16.40;63.60;;;;;;20811;6693;276576;-70
2023/08/31 04:27:45;;;;;;;3.20;3.00;;;16.60;62.90;;;;;;20787;6693;303601;-70
2023/08/31 04:30:20;;;;;;;2.60;2.40;;;16.90;61.90;;;;;;21022;6693;116681;-70
2023/08/31 04:32:56;;;;;;;3.30;2.90;;;16.80;62.20;;;;;;20632;6693;282001;-70
2023/08/31 04:35:31;;;;;;;3.20;2.90;;;16.90;61.80;;;;;;20784;6693;274800;-70
2023/08/31 04:38:07;;;;;;;3.62;3.20;;;17.10;61.00;;;;;;20801;6693;333025;-71
2023/08/31 04:40:43;;;;;;;3.00;2.77;;;17.30;60.30;;;;;;20789;6693;277308;-71
2023/08/31 04:43:21;;;;;;;3.03;2.80;;;17.50;59.60;;;;;;20802;6693;308826;-70
2023/08/31 04:45:54;;;;;;;2.83;2.53;;;17.50;59.60;;;;;;20995;6693;118749;-71
2023/08/31 04:48:30;;;;;;;3.03;2.40;;;17.30;60.30;;;;;;21009;6693;116829;-71
2023/08/31 04:51:05;;;;;;;3.30;3.00;;;16.90;61.50;;;;;;20763;6693;308110;-71
2023/08/31 04:53:41;;;;;;;3.33;2.83;;;16.90;61.50;;;;;;20790;6693;277165;-71
2023/08/31 04:56:16;;;;;;;3.43;3.13;;;17.10;60.50;;;;;;21019;6693;117107;-71
2023/08/31 04:58:52;;;;;;;2.47;2.37;;;17.00;60.90;;;;;;21016;6693;116073;-71
2023/08/31 05:01:29;;;;;;;4.93;2.57;;;16.70;61.90;;;;;;20926;6693;120455;-72
2023/08/31 05:04:05;;;;;;;3.20;2.93;;;16.30;62.80;;;;;;20770;6691;278924;-71
2023/08/31 05:06:41;;;;;;;4.50;3.30;;;16.80;61.20;;;;;;20696;6727;334491;-71
2023/08/31 05:09:18;;;;;;;4.73;2.70;;;16.80;61.30;;;;;;21024;6706;117869;-71
2023/08/31 05:11:53;;;;;;;3.03;2.70;;;16.70;61.60;;;;;;20849;6721;117318;-71
2023/08/31 05:14:29;;;;;;;5.47;3.03;;;16.40;62.60;;;;;;20978;6706;116574;-70
2023/08/31 05:17:04;;;;;;;4.90;2.93;;;16.20;63.50;;;;;;21031;6690;118225;-71
2023/08/31 05:19:40;;;;;;;3.40;3.20;;;16.10;64.30;;;;;;20754;6720;309474;-71
2023/08/31 05:22:16;;;;;;;5.37;2.90;;;16.30;63.70;;;;;;20800;6722;118789;-71
2023/08/31 05:24:51;;;;;;;2.60;2.43;;;16.30;63.70;;;;;;20981;6720;116656;-71
2023/08/31 05:27:27;;;;;;;2.90;2.70;;;16.20;64.30;;;;;;20986;6716;116778;-71
2023/08/31 05:30:03;;;;;;;3.50;3.20;;;16.10;64.90;;;;;;20813;6705;283967;-71
2023/08/31 05:32:38;;;;;;;3.47;3.10;;;16.30;64.30;;;;;;20598;6720;277315;-71
2023/08/31 05:35:14;;;;;;;4.63;3.40;;;16.70;62.90;;;;;;20754;6720;309230;-71
2023/08/31 05:37:50;;;;;;;2.90;2.70;;;17.00;62.00;;;;;;20904;6720;116896;-71
2023/08/31 05:40:26;;;;;;;2.90;2.70;;;17.00;62.00;;;;;;20930;6717;116916;-71
2023/08/31 05:43:03;;;;;;;2.70;2.33;;;16.80;62.90;;;;;;20978;6702;122828;-71
2023/08/31 05:45:38;;;;;;;3.93;3.00;;;16.70;63.70;;;;;;20697;6717;304298;-71
2023/08/31 05:48:14;;;;;;;2.50;2.30;;;16.80;62.50;;;;;;20932;6717;116799;-71
2023/08/31 05:50:49;;;;;;;3.40;3.10;;;16.90;63.00;;;;;;20716;6720;297311;-71
2023/08/31 05:53:26;;;;;;;3.23;2.93;;;17.60;60.80;;;;;;20798;6705;304532;-71
2023/08/31 05:56:05;;;;;;;5.57;2.60;;;17.60;60.80;;;;;;21017;6705;116855;-71
2023/08/31 05:58:40;;;;;;;3.67;2.77;;;17.60;61.20;;;;;;21014;6705;116640;-71
2023/08/31 06:01:37;;;;;;;3.60;2.90;;;17.30;61.80;;;;;;20585;6705;345432;-71
2023/08/31 06:07:15;;;;;;;3.40;2.80;;;17.60;60.80;;;;;;20940;6720;67397;-71
2023/08/31 06:09:51;;;;;;;3.00;2.67;;;17.20;62.30;;;;;;20844;6721;116676;-69
2023/08/31 06:12:27;;;;;;;4.10;3.00;;;17.20;61.60;;;;;;20577;6718;306360;-69
2023/08/31 06:15:03;;;;;;;3.92;3.20;;;17.40;61.40;;;;;;20678;6718;341575;-71
2023/08/31 06:17:38;;;;;;;4.00;3.00;;;17.70;61.10;;;;;;20647;6723;303726;-73
2023/08/31 06:20:14;;;;;;;3.17;2.80;;;17.90;60.70;;;;;;20891;6705;116733;-74
2023/08/31 06:22:49;;;;;;;5.47;3.13;;;17.80;61.30;;;;;;20608;6719;305423;-71
2023/08/31 06:25:25;;;;;;;5.33;3.00;;;17.80;61.40;;;;;;20968;6717;122968;-71
2023/08/31 06:28:01;;;;;;;3.92;3.37;;;17.80;62.00;;;;;;20709;6704;280959;-68
2023/08/31 06:30:36;;;;;;;4.13;3.53;;;17.90;61.70;;;;;;20658;6723;275986;-71
2023/08/31 06:33:12;;;;;;;6.13;3.10;;;18.10;61.00;;;;;;20985;6718;119517;-70
2023/08/31 06:35:51;;;;;;;3.37;2.77;;;18.10;61.50;;;;;;20864;6725;116837;-71
2023/08/31 06:38:26;;;;;;;5.40;3.20;;;17.80;62.20;;;;;;20868;6740;117044;-68
2023/08/31 06:41:02;;;;;;;3.03;2.83;;;17.60;63.00;;;;;;20886;6740;117048;-69
2023/08/31 06:43:37;;;;;;;3.00;2.80;;;17.40;63.60;;;;;;20906;6733;116821;-68
2023/08/31 06:46:14;;;;;;;3.30;2.40;;;17.30;64.80;;;;;;20935;6731;117439;-69
2023/08/31 06:48:49;;;;;;;4.40;3.43;;;17.20;64.60;;;;;;20689;6718;307457;-69
2023/08/31 06:51:26;;;;;;;3.53;3.22;;;17.50;63.50;;;;;;20664;6709;337156;-70
2023/08/31 06:54:07;;;;;;;3.13;2.90;;;18.10;62.80;;;;;;20942;6709;118129;-69
2023/08/31 06:56:43;;;;;;;5.07;3.03;;;18.10;62.80;;;;;;21014;6709;118090;-69
2023/08/31 06:59:18;;;;;;;2.90;2.60;;;18.00;63.40;;;;;;20942;6730;118511;-69
2023/08/31 07:01:54;;;;;;;3.87;3.03;;;17.90;64.00;;;;;;20860;6721;119092;-71
2023/08/31 07:04:29;;;;;;;3.42;3.15;;;17.80;64.30;;;;;;20688;6721;275699;-75
2023/08/31 07:07:05;;;;;;;3.57;3.27;;;18.10;62.80;;;;;;20761;6721;313190;-70
2023/08/31 07:09:41;;;;;;;3.80;3.00;;;18.50;61.40;;;;;;20951;6721;117211;-70
2023/08/31 07:12:16;;;;;;;5.47;3.40;;;18.60;61.80;;;;;;20598;6721;276591;-70
2023/08/31 07:14:52;;;;;;;3.83;3.60;;;18.70;60.30;;;;;;20645;6730;311900;-72
2023/08/31 07:17:28;;;;;;;3.87;3.30;;;19.00;60.30;;;;;;20857;6732;118026;-73
2023/08/31 07:20:07;;;;;;;3.70;3.40;;;19.00;60.70;;;;;;20805;6706;333566;-72
2023/08/31 07:22:42;;;;;;;3.43;3.20;;;19.20;59.20;;;;;;20760;6715;124118;-73
2023/08/31 07:25:19;;;;;;;3.90;3.55;;;19.10;59.10;;;;;;20734;6730;309758;-69
2023/08/31 07:27:54;;;;;;;3.30;3.00;;;19.10;59.10;;;;;;20925;6730;118694;-73
2023/08/31 07:30:33;;;;;;;6.07;3.50;;;19.10;58.90;;;;;;20763;6721;309710;-68
2023/08/31 07:33:06;;;;;;;5.07;3.35;;;19.10;58.90;;;;;;20790;6706;311915;-68
2023/08/31 07:35:42;;;;;;;3.77;3.40;;;19.40;58.20;;;;;;20687;6730;278468;-69
2023/08/31 07:38:17;;;;;;;3.72;3.10;;;19.80;58.00;;;;;;20797;6705;334939;-69
2023/08/31 07:40:53;;;;;;;6.10;2.70;;;20.10;57.10;;;;;;20963;6705;122576;-69
2023/08/31 07:43:29;;;;;;;3.53;2.40;;;19.90;59.10;;;;;;20997;6706;117801;-69
2023/08/31 07:46:05;;;;;;;3.60;3.10;;;19.90;58.80;;;;;;20729;6729;309384;-68
2023/08/31 07:48:41;;;;;;;3.73;2.50;;;20.10;58.00;;;;;;21003;6706;122949;-68
2023/08/31 07:51:16;;;;;;;3.58;3.00;;;20.20;58.60;;;;;;20728;6706;306785;-69
2023/08/31 07:53:56;;;;;;;3.30;2.80;;;21.00;56.20;;;;;;20781;6706;405855;-69
2023/08/31 07:56:29;;;;;;;2.57;2.37;;;21.00;56.20;;;;;;20952;6726;116946;-69
2023/08/31 07:59:04;;;;;;;2.90;2.60;;;21.10;56.90;;;;;;20740;6721;304864;-69
2023/08/31 08:01:41;;;;;;;4.03;2.40;;;21.30;55.00;;;;;;20882;6715;123004;-69
2023/08/31 08:04:19;;;;;;;2.77;2.03;;;21.40;55.80;;;;;;20940;6730;116992;-71
2023/08/31 08:06:51;;;;;;;3.50;2.55;;;21.40;56.30;;;;;;20741;6713;276873;-69
2023/08/31 08:09:28;;;;;;;4.00;2.70;;;22.10;52.90;;;;;;20750;6712;282131;-73
2023/08/31 08:12:13;;;;;;;;;;;;;;;;;;;;;
2023/08/31 10:32:22;;;;;;;2.83;2.30;;;24.50;35.10;;;;;;20968;6530;280291;-72
2023/08/31 10:35:04;;;;;;;3.53;2.17;;;24.70;35.60;;;;;;20666;6863;120362;-71
2023/08/31 10:37:29;;;;;;;3.80;2.40;;;24.60;37.50;;;;;;20433;6863;287263;-73
2023/08/31 10:40:08;;;;;;;3.03;2.00;;;24.60;34.70;;;;;;20656;6851;119167;-73
2023/08/31 10:42:41;;;;;;;2.83;2.30;;;24.20;37.80;;;;;;20643;6861;117999;-74
2023/08/31 10:45:07;;;;;;;4.03;2.50;;;24.20;37.80;;;;;;20440;6852;308872;-73
2023/08/31 10:47:36;;;;;;;2.93;2.23;;;24.20;35.00;;;;;;20375;6862;280352;-71
2023/08/31 10:50:01;;;;;;;2.30;2.10;;;24.30;33.70;;;;;;20356;6891;338400;-71
2023/08/31 10:52:27;;;;;;;2.30;2.00;;;24.30;33.80;;;;;;20447;6914;118011;-71
2023/08/31 10:54:56;;;;;;;2.58;2.22;;;24.00;36.00;;;;;;20375;6888;313366;-71
2023/08/31 10:57:21;;;;;;;2.03;1.93;;;24.00;34.50;;;;;;20564;6888;122317;-72
2023/08/31 10:59:51;;;;;;;3.17;1.77;;;24.10;36.90;;;;;;20505;6893;118738;-71
2023/08/31 11:02:29;;;;;;;2.57;2.00;;;24.00;38.10;;;;;;20570;6890;117534;-72
2023/08/31 11:04:55;;;;;;;3.17;2.40;;;24.00;38.90;;;;;;20618;6880;117270;-72
2023/08/31 11:07:20;;;;;;;2.60;2.40;;;23.90;39.20;;;;;;20365;6887;280119;-73
2023/08/31 11:09:49;;;;;;;2.57;2.33;;;24.00;34.70;;;;;;20335;6887;342639;-76
2023/08/31 11:12:14;;;;;;;2.40;2.20;;;24.30;34.30;;;;;;20367;6887;309262;-79
2023/08/31 11:14:40;;;;;;;3.78;2.42;;;24.60;34.10;;;;;;20358;6895;314680;-78
2023/08/31 11:17:05;;;;;;;3.13;2.53;;;24.80;34.40;;;;;;20349;6891;280183;-78
2023/08/31 11:19:33;;;;;;;3.20;2.20;;;25.10;33.60;;;;;;20374;6880;340631;-77
2023/08/31 11:22:11;;;;;;;2.43;2.20;;;25.10;33.60;;;;;;20564;6890;120650;-75
2023/08/31 11:24:28;;;;;;;2.50;2.30;;;24.90;35.80;;;;;;20274;6891;280096;-74
2023/08/31 11:26:55;;;;;;;3.27;1.93;;;24.90;34.00;;;;;;20591;6876;118559;-76
2023/08/31 11:29:20;;;;;;;3.93;2.50;;;24.60;33.90;;;;;;20381;6876;288105;-79
2023/08/31 11:31:46;;;;;;;3.93;1.80;;;24.60;33.90;;;;;;20586;6880;118315;-76
2023/08/31 11:34:12;;;;;;;3.23;2.33;;;24.50;34.70;;;;;;20373;6883;330797;-73
2023/08/31 11:36:38;;;;;;;3.93;2.33;;;24.50;34.70;;;;;;20598;6874;118525;-75
2023/08/31 11:39:03;;;;;;;3.65;2.30;;;24.50;36.90;;;;;;20366;6888;280645;-76
2023/08/31 11:41:33;;;;;;;2.60;2.10;;;24.70;35.50;;;;;;20577;6882;121072;-76
2023/08/31 11:43:59;;;;;;;3.83;2.30;;;24.70;36.80;;;;;;20384;6882;280065;-80
2023/08/31 11:46:25;;;;;;;4.43;2.20;;;24.80;37.00;;;;;;20587;6881;117338;-74
2023/08/31 11:48:51;;;;;;;3.13;2.00;;;24.80;36.90;;;;;;20626;6866;117435;-71
2023/08/31 11:51:18;;;;;;;2.43;2.23;;;25.00;35.00;;;;;;20405;6866;312431;-71
2023/08/31 11:53:43;;;;;;;4.30;2.10;;;25.00;34.90;;;;;;20604;6864;117968;-71
2023/08/31 11:56:08;;;;;;;2.13;1.90;;;25.10;37.00;;;;;;20616;6877;119275;-75
2023/08/31 11:58:34;;;;;;;2.20;2.00;;;25.10;37.60;;;;;;20624;6877;118248;-75
2023/08/31 12:01:00;;;;;;;2.97;2.05;;;25.10;38.10;;;;;;20382;6877;280516;-76
2023/08/31 12:03:25;;;;;;;3.87;2.57;;;25.30;35.40;;;;;;20383;6877;282006;-76
2023/08/31 12:05:51;;;;;;;3.00;2.30;;;25.70;34.70;;;;;;20339;6870;338419;-75
2023/08/31 12:08:16;;;;;;;3.72;2.58;;;26.00;34.00;;;;;;20380;6870;309745;-74
2023/08/31 12:10:42;;;;;;;4.23;2.30;;;26.20;33.90;;;;;;20563;6878;117350;-75
2023/08/31 12:13:11;;;;;;;2.73;2.07;;;26.10;36.00;;;;;;20599;6878;117837;-75
2023/08/31 12:15:36;;;;;;;6.70;2.37;;;26.00;37.50;;;;;;20512;6884;118197;-74
2023/08/31 12:18:12;;;;;;;3.35;2.30;;;25.70;37.40;;;;;;20422;6869;338443;-76
2023/08/31 12:20:51;;;;;;;3.60;2.10;;;25.80;34.90;;;;;;20540;6896;117444;-75
2023/08/31 12:23:17;;;;;;;2.97;1.70;;;25.70;36.30;;;;;;20561;6896;117631;-76
2023/08/31 12:25:49;;;;;;;2.60;2.27;;;25.50;37.60;;;;;;20328;6896;315389;-75
2023/08/31 12:28:15;;;;;;;2.80;2.15;;;25.50;34.20;;;;;;20347;6896;280584;-75
2023/08/31 12:30:43;;;;;;;2.40;2.20;;;25.70;34.40;;;;;;20340;6896;308389;-75
2023/08/31 12:33:09;;;;;;;3.83;2.33;;;25.90;35.20;;;;;;20335;6893;284348;-75
2023/08/31 12:35:34;;;;;;;3.90;2.17;;;25.90;35.20;;;;;;20379;6878;313011;-75
2023/08/31 12:37:59;;;;;;;3.67;2.00;;;26.00;34.60;;;;;;20395;6878;309806;-75
2023/08/31 12:40:25;;;;;;;2.30;2.00;;;26.00;33.20;;;;;;20608;6878;123336;-77
2023/08/31 12:42:51;;;;;;;4.50;2.20;;;25.70;35.30;;;;;;20626;6878;118231;-75
2023/08/31 12:45:16;;;;;;;1.73;1.50;;;25.20;36.40;;;;;;20622;6878;117912;-75
2023/08/31 12:47:43;;;;;;;2.87;2.00;;;24.80;37.40;;;;;;20613;6878;120712;-75
2023/08/31 12:50:09;;;;;;;2.73;2.33;;;24.50;38.00;;;;;;20408;6878;308880;-76
2023/08/31 12:52:34;;;;;;;2.57;2.30;;;24.50;36.20;;;;;;20398;6878;338936;-75
2023/08/31 12:55:01;;;;;;;3.70;2.13;;;24.70;35.70;;;;;;20402;6876;314101;-75
2023/08/31 12:57:28;;;;;;;2.50;2.10;;;25.00;36.00;;;;;;20612;6877;117329;-75
2023/08/31 12:59:55;;;;;;;6.83;3.33;;;24.90;37.40;;;;;;20600;6877;117560;-75
2023/08/31 13:02:21;;;;;;;3.80;2.40;;;24.60;36.10;;;;;;20403;6878;313805;-74
2023/08/31 13:04:47;;;;;;;2.43;2.17;;;24.60;36.10;;;;;;20392;6878;314662;-75
2023/08/31 13:07:12;;;;;;;3.95;3.17;;;24.80;35.90;;;;;;20398;6878;308035;-75
2023/08/31 13:09:38;;;;;;;2.43;1.90;;;25.10;36.30;;;;;;20602;6878;118919;-75
2023/08/31 13:12:05;;;;;;;3.70;1.97;;;25.00;37.60;;;;;;20617;6878;118156;-76
2023/08/31 13:14:30;;;;;;;3.60;2.40;;;24.70;38.30;;;;;;20398;6878;309731;-76
2023/08/31 13:16:56;;;;;;;4.10;1.97;;;24.70;36.40;;;;;;20613;6878;119069;-75
2023/08/31 13:19:22;;;;;;;3.03;2.07;;;24.60;37.60;;;;;;20598;6878;118381;-75
2023/08/31 13:21:47;;;;;;;2.40;1.95;;;24.30;38.40;;;;;;20546;6878;195242;-75
2023/08/31 13:24:13;;;;;;;3.13;1.90;;;23.90;39.90;;;;;;20606;6878;118048;-74
2023/08/31 13:26:41;;;;;;;2.67;2.25;;;23.90;39.90;;;;;;20385;6878;309633;-73
2023/08/31 13:29:06;;;;;;;2.63;2.40;;;24.00;37.60;;;;;;20378;6878;304665;-73
2023/08/31 13:31:33;;;;;;;2.20;1.83;;;24.40;35.40;;;;;;20571;6878;117889;-74
2023/08/31 13:33:58;;;;;;;2.90;1.90;;;24.40;36.90;;;;;;20588;6878;117539;-80
2023/08/31 13:36:23;;;;;;;2.35;2.15;;;24.30;37.80;;;;;;20370;6878;283911;-74
2023/08/31 13:38:49;;;;;;;2.20;2.00;;;24.40;36.00;;;;;;20604;6878;117362;-75
2023/08/31 13:41:14;;;;;;;2.07;1.93;;;24.40;37.70;;;;;;20609;6878;117535;-76
2023/08/31 13:43:40;;;;;;;1.93;1.70;;;24.30;38.30;;;;;;20591;6878;118607;-74
2023/08/31 13:46:06;;;;;;;2.33;2.12;;;24.10;39.50;;;;;;20605;6878;118078;-73
2023/08/31 13:48:32;;;;;;;2.60;2.10;;;24.10;39.50;;;;;;20604;6878;117947;-74
2023/08/31 13:50:57;;;;;;;2.90;2.20;;;24.00;39.90;;;;;;20398;6878;311697;-74
2023/08/31 13:53:23;;;;;;;4.00;2.40;;;24.20;37.20;;;;;;20395;6878;295569;-74
2023/08/31 13:55:48;;;;;;;2.43;2.17;;;24.60;36.20;;;;;;20592;6878;118417;-74
2023/08/31 13:58:14;;;;;;;3.80;2.58;;;24.60;37.50;;;;;;20391;6878;311210;-74
2023/08/31 14:00:40;;;;;;;3.47;2.10;;;24.70;36.70;;;;;;20401;6878;313949;-76
2023/08/31 14:03:05;;;;;;;3.40;2.20;;;25.00;37.10;;;;;;20608;6878;117956;-77
2023/08/31 14:05:31;;;;;;;3.22;2.40;;;24.90;38.30;;;;;;20379;6876;280544;-75
2023/08/31 14:07:58;;;;;;;3.35;2.17;;;24.90;37.20;;;;;;20399;6877;310776;-78
2023/08/31 14:10:23;;;;;;;2.40;2.20;;;25.00;35.70;;;;;;20393;6877;338426;-74
2023/08/31 14:12:49;;;;;;;2.70;1.83;;;25.10;35.40;;;;;;20601;6878;117402;-77
2023/08/31 14:15:14;;;;;;;2.50;2.30;;;24.90;37.10;;;;;;20409;6878;282594;-76
2023/08/31 14:17:41;;;;;;;5.07;2.50;;;24.80;36.20;;;;;;20601;6878;117638;-75
2023/08/31 14:20:09;;;;;;;4.23;2.20;;;24.60;37.60;;;;;;20614;6878;117559;-79
2023/08/31 14:22:32;;;;;;;5.47;2.30;;;24.30;38.40;;;;;;20610;6878;118387;-75
2023/08/31 14:24:57;;;;;;;2.30;2.10;;;24.10;39.00;;;;;;20616;6878;117770;-75
2023/08/31 14:27:23;;;;;;;6.87;2.42;;;23.80;39.40;;;;;;20607;6878;117316;-77
2023/08/31 14:29:49;;;;;;;2.70;2.30;;;23.60;40.10;;;;;;20585;6878;117438;-79
2023/08/31 14:32:14;;;;;;;5.73;1.90;;;23.50;40.20;;;;;;20602;6878;117341;-74
2023/08/31 14:34:40;;;;;;;4.53;2.57;;;23.40;40.50;;;;;;20584;6878;119098;-74
2023/08/31 14:37:05;;;;;;;4.20;2.13;;;23.30;40.90;;;;;;20398;6878;279332;-74
2023/08/31 14:39:31;;;;;;;7.77;2.33;;;23.40;38.50;;;;;;20585;6878;147127;-74
2023/08/31 14:41:57;;;;;;;3.95;2.40;;;23.60;38.40;;;;;;20397;6878;279154;-74
2023/08/31 14:44:24;;;;;;;2.80;2.43;;;24.00;37.60;;;;;;20403;6878;313206;-75
2023/08/31 14:46:49;;;;;;;4.47;1.90;;;23.90;37.50;;;;;;20614;6878;119154;-72
2023/08/31 14:49:15;;;;;;;3.73;2.40;;;24.00;39.10;;;;;;20414;6878;283854;-75
2023/08/31 14:51:41;;;;;;;2.67;2.00;;;24.10;38.90;;;;;;20606;6878;123233;-76
2023/08/31 14:54:09;;;;;;;5.75;2.40;;;24.10;40.20;;;;;;20414;6878;279582;-79
2023/08/31 14:56:34;;;;;;;2.70;2.30;;;24.20;37.30;;;;;;20399;6878;310523;-77
2023/08/31 14:59:00;;;;;;;4.15;2.30;;;24.40;37.10;;;;;;20405;6878;332168;-76
2023/08/31 15:01:28;;;;;;;4.95;2.53;;;24.70;35.80;;;;;;20399;6878;309418;-78
2023/08/31 15:03:54;;;;;;;3.40;2.60;;;24.80;36.10;;;;;;20377;6878;338864;-75
2023/08/31 15:06:20;;;;;;;2.00;1.90;;;24.80;36.10;;;;;;20616;6878;117606;-72
2023/08/31 15:08:45;;;;;;;3.50;2.43;;;24.50;37.30;;;;;;20618;6878;117348;-73
2023/08/31 15:11:11;;;;;;;2.53;1.60;;;24.20;38.20;;;;;;20611;6878;123800;-74
2023/08/31 15:13:36;;;;;;;3.20;2.40;;;23.80;39.00;;;;;;20381;6878;313851;-76
2023/08/31 15:16:02;;;;;;;3.43;3.07;;;23.90;37.30;;;;;;20620;6878;118114;-72